sensor_id;sensor_type;location;lat;lon;timestamp;pressure;altitude;pressure_sealevel;temperature;humidity
34241;BME280;20503;50.200;19.508;2023-02-17T00:00:20;102249.49;;;1.35;100.00
34241;BME280;20503;50.200;19.508;2023-02-17T00:05:27;102244.71;;;1.38;100.00
34241;BME280;20503;50.200;19.508;2023-02-17T00:10:35;102230.88;;;1.43;100.00
34241;BME280;20503;50.200;19.508;2023-02-17T00:15:43;102228.70;;;1.48;100.00
34241;BME280;20503;50.200;19.508;2023-02-17T00:20:51;102223.70;;;1.54;100.00
34241;BME280;20503;50.200;19.508;2023-02-17T00:25:59;102224.18;;;1.48;100.00
34241;BME280;20503;50.200;19.508;2023-02-17T00:31:18;102220.10;;;1.43;100.00
34241;BME280;20503;50.200;19.508;2023-02-17T00:36:17;102226.13;;;1.46;100.00
34241;BME280;20503;50.200;19.508;2023-02-17T00:41:23;102219.59;;;1.61;100.00
34241;BME280;20503;50.200;19.508;2023-02-17T00:46:29;102206.75;;;1.76;100.00
34241;BME280;20503;50.200;19.508;2023-02-17T00:51:37;102207.05;;;1.83;100.00
34241;BME280;20503;50.200;19.508;2023-02-17T00:56:46;102194.92;;;2.00;100.00
34241;BME280;20503;50.200;19.508;2023-02-17T01:01:53;102196.09;;;2.19;100.00
34241;BME280;20503;50.200;19.508;2023-02-17T01:07:00;102185.91;;;2.23;100.00
34241;BME280;20503;50.200;19.508;2023-02-17T01:12:11;102186.50;;;2.26;100.00
34241;BME280;20503;50.200;19.508;2023-02-17T01:17:15;102178.40;;;2.26;100.00
34241;BME280;20503;50.200;19.508;2023-02-17T01:22:24;102167.34;;;2.29;100.00
34241;BME280;20503;50.200;19.508;2023-02-17T01:27:31;102168.96;;;2.32;100.00
34241;BME280;20503;50.200;19.508;2023-02-17T01:32:39;102162.46;;;2.34;100.00
34241;BME280;20503;50.200;19.508;2023-02-17T01:37:47;102159.01;;;2.43;100.00
34241;BME280;20503;50.200;19.508;2023-02-17T01:42:55;102147.34;;;2.54;100.00
34241;BME280;20503;50.200;19.508;2023-02-17T01:48:10;102152.63;;;2.66;100.00
34241;BME280;20503;50.200;19.508;2023-02-17T01:53:16;102146.71;;;2.72;100.00
34241;BME280;20503;50.200;19.508;2023-02-17T01:58:22;102151.13;;;2.84;100.00
34241;BME280;20503;50.200;19.508;2023-02-17T02:03:29;102157.99;;;2.88;100.00
34241;BME280;20503;50.200;19.508;2023-02-17T02:09:31;102149.87;;;2.99;100.00
34241;BME280;20503;50.200;19.508;2023-02-17T02:13:51;102148.88;;;3.00;100.00
34241;BME280;20503;50.200;19.508;2023-02-17T02:24:20;102145.45;;;2.98;100.00
34241;BME280;20503;50.200;19.508;2023-02-17T02:39:51;102127.36;;;2.99;100.00
34241;BME280;20503;50.200;19.508;2023-02-17T02:44:55;102139.15;;;3.09;100.00
34241;BME280;20503;50.200;19.508;2023-02-17T02:49:56;102125.48;;;3.10;100.00
34241;BME280;20503;50.200;19.508;2023-02-17T02:55:03;102126.33;;;3.22;100.00
34241;BME280;20503;50.200;19.508;2023-02-17T03:10:34;102124.57;;;3.21;100.00
34241;BME280;20503;50.200;19.508;2023-02-17T03:15:36;102120.80;;;3.12;100.00
34241;BME280;20503;50.200;19.508;2023-02-17T03:20:50;102118.96;;;3.13;100.00
34241;BME280;20503;50.200;19.508;2023-02-17T03:25:52;102120.56;;;3.15;100.00
34241;BME280;20503;50.200;19.508;2023-02-17T03:30:53;102113.38;;;3.25;100.00
34241;BME280;20503;50.200;19.508;2023-02-17T03:35:54;102108.30;;;3.32;100.00
34241;BME280;20503;50.200;19.508;2023-02-17T03:40:57;102105.49;;;3.33;100.00
34241;BME280;20503;50.200;19.508;2023-02-17T03:46:10;102101.57;;;3.26;100.00
34241;BME280;20503;50.200;19.508;2023-02-17T03:51:17;102102.29;;;3.28;100.00
34241;BME280;20503;50.200;19.508;2023-02-17T03:56:20;102100.91;;;3.34;100.00
34241;BME280;20503;50.200;19.508;2023-02-17T04:01:29;102102.63;;;3.35;100.00
34241;BME280;20503;50.200;19.508;2023-02-17T04:06:36;102104.95;;;3.39;100.00
34241;BME280;20503;50.200;19.508;2023-02-17T04:11:43;102093.59;;;3.45;100.00
34241;BME280;20503;50.200;19.508;2023-02-17T04:16:51;102097.79;;;3.49;100.00
34241;BME280;20503;50.200;19.508;2023-02-17T04:21:59;102093.59;;;3.45;100.00
34241;BME280;20503;50.200;19.508;2023-02-17T04:27:07;102092.48;;;3.48;100.00
34241;BME280;20503;50.200;19.508;2023-02-17T04:32:15;102081.67;;;3.48;100.00
34241;BME280;20503;50.200;19.508;2023-02-17T04:37:23;102080.56;;;3.50;100.00
34241;BME280;20503;50.200;19.508;2023-02-17T04:42:31;102080.17;;;3.55;100.00
34241;BME280;20503;50.200;19.508;2023-02-17T04:47:39;102082.34;;;3.61;100.00
34241;BME280;20503;50.200;19.508;2023-02-17T04:52:47;102079.23;;;3.65;100.00
34241;BME280;20503;50.200;19.508;2023-02-17T04:57:54;102080.63;;;3.80;100.00
34241;BME280;20503;50.200;19.508;2023-02-17T05:03:03;102083.11;;;3.92;100.00
34241;BME280;20503;50.200;19.508;2023-02-17T05:08:10;102074.59;;;3.97;100.00
34241;BME280;20503;50.200;19.508;2023-02-17T05:13:18;102068.90;;;4.00;100.00
34241;BME280;20503;50.200;19.508;2023-02-17T05:18:25;102072.05;;;4.05;100.00
34241;BME280;20503;50.200;19.508;2023-02-17T05:23:32;102060.94;;;4.08;100.00
34241;BME280;20503;50.200;19.508;2023-02-17T05:28:40;102059.82;;;4.10;100.00
34241;BME280;20503;50.200;19.508;2023-02-17T05:33:48;102048.40;;;4.07;100.00
34241;BME280;20503;50.200;19.508;2023-02-17T05:38:55;102043.38;;;4.02;100.00
34241;BME280;20503;50.200;19.508;2023-02-17T05:44:03;102043.13;;;4.05;100.00
34241;BME280;20503;50.200;19.508;2023-02-17T05:49:12;102041.54;;;4.03;100.00
34241;BME280;20503;50.200;19.508;2023-02-17T05:54:20;102032.30;;;4.05;100.00
34241;BME280;20503;50.200;19.508;2023-02-17T05:59:28;102017.16;;;4.03;100.00
34241;BME280;20503;50.200;19.508;2023-02-17T06:04:35;102018.99;;;4.02;100.00
34241;BME280;20503;50.200;19.508;2023-02-17T06:09:43;102014.88;;;4.08;100.00
34241;BME280;20503;50.200;19.508;2023-02-17T06:14:51;102023.02;;;4.08;100.00
34241;BME280;20503;50.200;19.508;2023-02-17T06:19:59;102004.20;;;4.06;100.00
34241;BME280;20503;50.200;19.508;2023-02-17T06:25:07;102005.51;;;4.12;100.00
34241;BME280;20503;50.200;19.508;2023-02-17T06:30:15;102005.95;;;4.17;100.00
34241;BME280;20503;50.200;19.508;2023-02-17T06:35:22;102009.28;;;4.30;100.00
34241;BME280;20503;50.200;19.508;2023-02-17T06:40:30;102008.15;;;4.42;100.00
34241;BME280;20503;50.200;19.508;2023-02-17T06:45:38;102008.33;;;4.50;100.00
34241;BME280;20503;50.200;19.508;2023-02-17T06:50:49;102005.34;;;4.53;100.00
34241;BME280;20503;50.200;19.508;2023-02-17T07:01:29;102019.80;;;4.82;100.00
34241;BME280;20503;50.200;19.508;2023-02-17T07:06:37;102027.22;;;4.99;100.00
34241;BME280;20503;50.200;19.508;2023-02-17T07:11:45;102018.80;;;5.02;100.00
34241;BME280;20503;50.200;19.508;2023-02-17T07:16:54;102020.92;;;5.08;100.00
34241;BME280;20503;50.200;19.508;2023-02-17T07:22:02;102010.37;;;5.14;100.00
34241;BME280;20503;50.200;19.508;2023-02-17T07:27:10;101989.49;;;5.34;100.00
34241;BME280;20503;50.200;19.508;2023-02-17T07:32:18;101976.02;;;5.51;100.00
34241;BME280;20503;50.200;19.508;2023-02-17T07:37:26;102000.56;;;5.68;100.00
34241;BME280;20503;50.200;19.508;2023-02-17T07:42:34;101995.10;;;5.78;100.00
34241;BME280;20503;50.200;19.508;2023-02-17T07:47:41;101998.22;;;5.92;100.00
34241;BME280;20503;50.200;19.508;2023-02-17T07:52:49;101988.35;;;5.91;100.00
34241;BME280;20503;50.200;19.508;2023-02-17T07:57:57;101997.77;;;5.97;100.00
34241;BME280;20503;50.200;19.508;2023-02-17T08:03:05;101988.38;;;6.18;100.00
34241;BME280;20503;50.200;19.508;2023-02-17T08:08:14;101980.82;;;6.39;100.00
34241;BME280;20503;50.200;19.508;2023-02-17T08:13:27;101977.02;;;6.50;100.00
34241;BME280;20503;50.200;19.508;2023-02-17T08:18:29;101982.19;;;6.53;100.00
34241;BME280;20503;50.200;19.508;2023-02-17T08:23:37;101970.77;;;6.84;100.00
34241;BME280;20503;50.200;19.508;2023-02-17T08:28:45;101968.90;;;7.02;100.00
34241;BME280;20503;50.200;19.508;2023-02-17T08:33:53;101970.05;;;7.00;100.00
34241;BME280;20503;50.200;19.508;2023-02-17T08:39:00;101968.29;;;6.91;100.00
34241;BME280;20503;50.200;19.508;2023-02-17T08:49:21;101974.41;;;6.75;100.00
34241;BME280;20503;50.200;19.508;2023-02-17T08:54:23;101969.70;;;6.77;100.00
34241;BME280;20503;50.200;19.508;2023-02-17T08:59:31;101971.30;;;6.70;100.00
34241;BME280;20503;50.200;19.508;2023-02-17T09:04:38;101960.74;;;6.67;100.00
34241;BME280;20503;50.200;19.508;2023-02-17T09:09:46;101956.94;;;6.60;100.00
34241;BME280;20503;50.200;19.508;2023-02-17T09:14:53;101955.12;;;6.51;100.00
34241;BME280;20503;50.200;19.508;2023-02-17T09:20:02;101958.29;;;6.29;100.00
34241;BME280;20503;50.200;19.508;2023-02-17T09:25:09;101944.95;;;6.36;100.00
34241;BME280;20503;50.200;19.508;2023-02-17T09:30:17;101940.07;;;6.57;100.00
34241;BME280;20503;50.200;19.508;2023-02-17T09:35:25;101930.25;;;6.64;100.00
34241;BME280;20503;50.200;19.508;2023-02-17T09:40:45;101929.56;;;6.62;100.00
34241;BME280;20503;50.200;19.508;2023-02-17T09:45:58;101917.06;;;6.69;100.00
34241;BME280;20503;50.200;19.508;2023-02-17T09:51:13;101926.01;;;6.61;100.00
34241;BME280;20503;50.200;19.508;2023-02-17T09:56:23;101928.79;;;6.69;100.00
34241;BME280;20503;50.200;19.508;2023-02-17T10:01:30;101926.86;;;6.79;100.00
34241;BME280;20503;50.200;19.508;2023-02-17T10:06:36;101915.70;;;6.90;100.00
34241;BME280;20503;50.200;19.508;2023-02-17T10:11:47;101917.83;;;6.79;100.00
34241;BME280;20503;50.200;19.508;2023-02-17T10:16:56;101908.55;;;6.89;100.00
34241;BME280;20503;50.200;19.508;2023-02-17T10:22:07;101910.67;;;6.95;100.00
34241;BME280;20503;50.200;19.508;2023-02-17T10:32:26;101905.13;;;7.05;100.00
34241;BME280;20503;50.200;19.508;2023-02-17T10:42:44;101885.63;;;6.92;100.00
34241;BME280;20503;50.200;19.508;2023-02-17T10:47:46;101881.21;;;6.73;100.00
34241;BME280;20503;50.200;19.508;2023-02-17T10:52:49;101879.73;;;6.79;100.00
34241;BME280;20503;50.200;19.508;2023-02-17T10:58:04;101861.01;;;6.76;100.00
34241;BME280;20503;50.200;19.508;2023-02-17T11:08:29;101837.91;;;6.80;100.00
34241;BME280;20503;50.200;19.508;2023-02-17T11:13:42;101821.75;;;6.78;100.00
34241;BME280;20503;50.200;19.508;2023-02-17T11:18:47;101817.00;;;6.80;100.00
34241;BME280;20503;50.200;19.508;2023-02-17T11:29:08;101802.02;;;6.76;100.00
34241;BME280;20503;50.200;19.508;2023-02-17T11:34:19;101788.19;;;6.70;100.00
34241;BME280;20503;50.200;19.508;2023-02-17T11:39:21;101782.06;;;6.68;100.00
34241;BME280;20503;50.200;19.508;2023-02-17T11:44:25;101767.84;;;6.56;100.00
34241;BME280;20503;50.200;19.508;2023-02-17T12:20:52;101741.19;;;6.60;100.00
34241;BME280;20503;50.200;19.508;2023-02-17T12:36:37;101727.44;;;6.61;100.00
34241;BME280;20503;50.200;19.508;2023-02-17T12:42:29;101724.94;;;6.68;100.00
34241;BME280;20503;50.200;19.508;2023-02-17T12:46:56;101723.70;;;6.62;100.00
34241;BME280;20503;50.200;19.508;2023-02-17T12:52:05;101712.32;;;6.67;100.00
34241;BME280;20503;50.200;19.508;2023-02-17T13:02:26;101698.42;;;6.70;100.00
34241;BME280;20503;50.200;19.508;2023-02-17T13:12:41;101682.93;;;6.70;100.00
34241;BME280;20503;50.200;19.508;2023-02-17T13:17:54;101684.16;;;6.76;100.00
34241;BME280;20503;50.200;19.508;2023-02-17T13:23:07;101663.26;;;6.76;100.00
34241;BME280;20503;50.200;19.508;2023-02-17T13:28:16;101651.36;;;6.77;100.00
34241;BME280;20503;50.200;19.508;2023-02-17T13:33:29;101634.85;;;6.79;100.00
34241;BME280;20503;50.200;19.508;2023-02-17T13:38:31;101629.96;;;6.90;100.00
34241;BME280;20503;50.200;19.508;2023-02-17T13:43:41;101627.97;;;6.92;100.00
34241;BME280;20503;50.200;19.508;2023-02-17T13:48:43;101615.39;;;6.99;100.00
34241;BME280;20503;50.200;19.508;2023-02-17T13:53:49;101604.16;;;7.02;100.00
34241;BME280;20503;50.200;19.508;2023-02-17T13:58:50;101586.81;;;7.03;100.00
34241;BME280;20503;50.200;19.508;2023-02-17T14:03:55;101584.95;;;7.04;100.00
34241;BME280;20503;50.200;19.508;2023-02-17T14:08:59;101585.15;;;7.10;100.00
34241;BME280;20503;50.200;19.508;2023-02-17T14:14:06;101579.37;;;7.13;100.00
34241;BME280;20503;50.200;19.508;2023-02-17T14:19:17;101584.96;;;7.12;100.00
34241;BME280;20503;50.200;19.508;2023-02-17T14:34:46;101543.82;;;7.23;100.00
34241;BME280;20503;50.200;19.508;2023-02-17T14:39:48;101526.12;;;7.27;100.00
34241;BME280;20503;50.200;19.508;2023-02-17T14:44:49;101538.38;;;7.23;100.00
34241;BME280;20503;50.200;19.508;2023-02-17T14:49:51;101542.27;;;7.20;100.00
34241;BME280;20503;50.200;19.508;2023-02-17T14:54:52;101524.23;;;7.19;100.00
34241;BME280;20503;50.200;19.508;2023-02-17T14:59:54;101512.67;;;7.09;100.00
34241;BME280;20503;50.200;19.508;2023-02-17T15:04:57;101517.75;;;6.96;100.00
34241;BME280;20503;50.200;19.508;2023-02-17T15:09:58;101496.96;;;6.87;100.00
34241;BME280;20503;50.200;19.508;2023-02-17T15:15:00;101502.90;;;6.83;100.00
34241;BME280;20503;50.200;19.508;2023-02-17T15:20:01;101489.79;;;6.70;100.00
34241;BME280;20503;50.200;19.508;2023-02-17T15:25:11;101478.56;;;6.65;100.00
34241;BME280;20503;50.200;19.508;2023-02-17T15:30:16;101485.85;;;6.65;100.00
34241;BME280;20503;50.200;19.508;2023-02-17T15:35:23;101470.74;;;6.62;100.00
34241;BME280;20503;50.200;19.508;2023-02-17T15:40:26;101461.03;;;6.60;100.00
34241;BME280;20503;50.200;19.508;2023-02-17T15:45:28;101443.54;;;6.62;100.00
34241;BME280;20503;50.200;19.508;2023-02-17T15:50:31;101434.36;;;6.63;100.00
34241;BME280;20503;50.200;19.508;2023-02-17T15:55:32;101418.88;;;6.64;100.00
34241;BME280;20503;50.200;19.508;2023-02-17T16:00:34;101404.93;;;6.67;100.00
34241;BME280;20503;50.200;19.508;2023-02-17T16:05:36;101397.64;;;6.67;100.00
34241;BME280;20503;50.200;19.508;2023-02-17T16:10:38;101391.86;;;6.70;100.00
34241;BME280;20503;50.200;19.508;2023-02-17T16:15:45;101395.79;;;6.76;100.00
34241;BME280;20503;50.200;19.508;2023-02-17T16:20:49;101374.35;;;6.81;100.00
34241;BME280;20503;50.200;19.508;2023-02-17T16:25:52;101390.34;;;6.92;100.00
34241;BME280;20503;50.200;19.508;2023-02-17T16:31:00;101391.55;;;6.97;100.00
34241;BME280;20503;50.200;19.508;2023-02-17T16:36:13;101394.78;;;7.01;100.00
34241;BME280;20503;50.200;19.508;2023-02-17T16:41:16;101382.52;;;6.97;100.00
34241;BME280;20503;50.200;19.508;2023-02-17T16:46:29;101377.59;;;7.00;100.00
34241;BME280;20503;50.200;19.508;2023-02-17T16:51:31;101363.13;;;7.08;100.00
34241;BME280;20503;50.200;19.508;2023-02-17T16:56:44;101321.78;;;7.12;100.00
34241;BME280;20503;50.200;19.508;2023-02-17T17:01:47;101337.73;;;7.31;100.00
34241;BME280;20503;50.200;19.508;2023-02-17T17:06:53;101336.70;;;7.32;100.00
34241;BME280;20503;50.200;19.508;2023-02-17T17:12:01;101337.54;;;7.33;100.00
34241;BME280;20503;50.200;19.508;2023-02-17T17:17:10;101344.37;;;7.37;100.00
34241;BME280;20503;50.200;19.508;2023-02-17T17:22:18;101311.28;;;7.47;100.00
34241;BME280;20503;50.200;19.508;2023-02-17T17:27:25;101322.69;;;7.51;100.00
34241;BME280;20503;50.200;19.508;2023-02-17T17:32:33;101310.76;;;7.60;100.00
34241;BME280;20503;50.200;19.508;2023-02-17T17:37:42;101291.13;;;7.64;100.00
34241;BME280;20503;50.200;19.508;2023-02-17T17:42:50;101294.13;;;7.77;100.00
34241;BME280;20503;50.200;19.508;2023-02-17T17:47:58;101284.26;;;7.76;100.00
34241;BME280;20503;50.200;19.508;2023-02-17T17:53:06;101290.00;;;7.89;100.00
34241;BME280;20503;50.200;19.508;2023-02-17T17:58:13;101309.23;;;7.88;100.00
34241;BME280;20503;50.200;19.508;2023-02-17T18:03:21;101310.04;;;7.96;100.00
34241;BME280;20503;50.200;19.508;2023-02-17T18:08:29;101296.25;;;7.98;100.00
34241;BME280;20503;50.200;19.508;2023-02-17T18:13:37;101312.20;;;8.09;100.00
34241;BME280;20503;50.200;19.508;2023-02-17T18:18:46;101298.31;;;7.96;100.00
34241;BME280;20503;50.200;19.508;2023-02-17T18:23:53;101290.36;;;7.86;100.00
34241;BME280;20503;50.200;19.508;2023-02-17T18:29:00;101305.68;;;7.87;100.00
34241;BME280;20503;50.200;19.508;2023-02-17T18:34:09;101292.07;;;7.79;100.00
34241;BME280;20503;50.200;19.508;2023-02-17T18:39:16;101280.38;;;7.71;100.00
34241;BME280;20503;50.200;19.508;2023-02-17T18:44:24;101275.26;;;7.76;100.00
34241;BME280;20503;50.200;19.508;2023-02-17T18:49:31;101289.19;;;7.81;100.00
34241;BME280;20503;50.200;19.508;2023-02-17T18:54:43;101257.42;;;7.96;100.00
34241;BME280;20503;50.200;19.508;2023-02-17T18:59:47;101289.10;;;7.97;100.00
34241;BME280;20503;50.200;19.508;2023-02-17T19:04:55;101288.90;;;7.98;100.00
34241;BME280;20503;50.200;19.508;2023-02-17T19:10:04;101287.97;;;8.14;100.00
34241;BME280;20503;50.200;19.508;2023-02-17T19:15:11;101286.20;;;8.29;100.00
34241;BME280;20503;50.200;19.508;2023-02-17T19:20:18;101283.63;;;8.27;100.00
34241;BME280;20503;50.200;19.508;2023-02-17T19:25:26;101299.09;;;8.35;100.00
34241;BME280;20503;50.200;19.508;2023-02-17T19:30:34;101290.38;;;8.39;100.00
34241;BME280;20503;50.200;19.508;2023-02-17T19:35:43;101285.75;;;8.40;100.00
34241;BME280;20503;50.200;19.508;2023-02-17T19:40:50;101318.61;;;8.46;100.00
34241;BME280;20503;50.200;19.508;2023-02-17T19:45:58;101294.01;;;8.32;100.00
34241;BME280;20503;50.200;19.508;2023-02-17T19:51:07;101293.05;;;8.17;100.00
34241;BME280;20503;50.200;19.508;2023-02-17T19:56:16;101310.51;;;8.08;100.00
34241;BME280;20503;50.200;19.508;2023-02-17T20:01:27;101319.02;;;8.05;100.00
34241;BME280;20503;50.200;19.508;2023-02-17T20:06:38;101300.30;;;8.02;100.00
34241;BME280;20503;50.200;19.508;2023-02-17T20:11:41;101298.10;;;7.97;100.00
34241;BME280;20503;50.200;19.508;2023-02-17T20:16:45;101284.14;;;8.00;100.00
34241;BME280;20503;50.200;19.508;2023-02-17T20:21:53;101283.65;;;7.97;100.00
34241;BME280;20503;50.200;19.508;2023-02-17T20:27:01;101277.30;;;8.04;100.00
34241;BME280;20503;50.200;19.508;2023-02-17T20:32:09;101289.03;;;8.05;100.00
34241;BME280;20503;50.200;19.508;2023-02-17T20:37:17;101286.27;;;8.13;100.00
34241;BME280;20503;50.200;19.508;2023-02-17T20:42:25;101286.77;;;8.16;100.00
34241;BME280;20503;50.200;19.508;2023-02-17T20:47:33;101265.95;;;8.15;100.00
34241;BME280;20503;50.200;19.508;2023-02-17T20:52:41;101263.21;;;8.23;100.00
34241;BME280;20503;50.200;19.508;2023-02-17T20:57:48;101262.23;;;8.16;100.00
34241;BME280;20503;50.200;19.508;2023-02-17T21:02:55;101252.14;;;8.25;100.00
34241;BME280;20503;50.200;19.508;2023-02-17T21:08:03;101250.74;;;8.29;100.00
34241;BME280;20503;50.200;19.508;2023-02-17T21:13:11;101258.47;;;8.40;100.00
34241;BME280;20503;50.200;19.508;2023-02-17T21:18:18;101251.16;;;8.40;100.00
34241;BME280;20503;50.200;19.508;2023-02-17T21:23:26;101256.73;;;8.47;100.00
34241;BME280;20503;50.200;19.508;2023-02-17T21:28:35;101232.55;;;8.44;100.00
34241;BME280;20503;50.200;19.508;2023-02-17T21:33:42;101232.35;;;8.45;100.00
34241;BME280;20503;50.200;19.508;2023-02-17T21:38:51;101222.30;;;8.46;100.00
34241;BME280;20503;50.200;19.508;2023-02-17T21:43:59;101228.70;;;8.53;100.00
34241;BME280;20503;50.200;19.508;2023-02-17T21:49:12;101237.75;;;8.53;100.00
34241;BME280;20503;50.200;19.508;2023-02-17T21:54:14;101228.04;;;8.51;100.00
34241;BME280;20503;50.200;19.508;2023-02-17T21:59:22;101217.23;;;8.43;100.00
34241;BME280;20503;50.200;19.508;2023-02-17T22:04:29;101212.21;;;8.46;100.00
34241;BME280;20503;50.200;19.508;2023-02-17T22:09:37;101212.55;;;8.66;100.00
34241;BME280;20503;50.200;19.508;2023-02-17T22:14:45;101221.39;;;8.68;100.00
34241;BME280;20503;50.200;19.508;2023-02-17T22:19:52;101229.03;;;8.72;100.00
34241;BME280;20503;50.200;19.508;2023-02-17T22:25:00;101229.42;;;8.84;100.00
34241;BME280;20503;50.200;19.508;2023-02-17T22:30:09;101278.75;;;8.82;100.00
34241;BME280;20503;50.200;19.508;2023-02-17T22:35:16;101273.70;;;9.08;100.00
34241;BME280;20503;50.200;19.508;2023-02-17T22:40:23;101256.10;;;9.11;100.00
34241;BME280;20503;50.200;19.508;2023-02-17T22:45:31;101253.75;;;9.08;100.00
34241;BME280;20503;50.200;19.508;2023-02-17T22:50:39;101245.82;;;9.27;100.00
34241;BME280;20503;50.200;19.508;2023-02-17T22:55:52;101249.88;;;9.17;100.00
34241;BME280;20503;50.200;19.508;2023-02-17T23:01:23;101249.33;;;9.07;100.00
34241;BME280;20503;50.200;19.508;2023-02-17T23:06:14;101248.57;;;8.98;100.00
34241;BME280;20503;50.200;19.508;2023-02-17T23:11:22;101242.62;;;9.09;100.00
34241;BME280;20503;50.200;19.508;2023-02-17T23:16:36;101261.25;;;9.06;100.00
34241;BME280;20503;50.200;19.508;2023-02-17T23:21:42;101252.89;;;9.07;100.00
34241;BME280;20503;50.200;19.508;2023-02-17T23:26:45;101274.18;;;9.12;100.00
34241;BME280;20503;50.200;19.508;2023-02-17T23:31:47;101272.38;;;9.04;100.00
34241;BME280;20503;50.200;19.508;2023-02-17T23:36:48;101262.46;;;8.89;100.00
34241;BME280;20503;50.200;19.508;2023-02-17T23:41:55;101277.90;;;8.82;100.00
34241;BME280;20503;50.200;19.508;2023-02-17T23:47:03;101245.31;;;8.80;100.00
34241;BME280;20503;50.200;19.508;2023-02-17T23:52:10;101253.05;;;8.77;100.00
34241;BME280;20503;50.200;19.508;2023-02-17T23:57:18;101260.58;;;8.75;100.00
